Time;durP1;ratioP1;P1;durP2;ratioP2;P2;SDS_P1;SDS_P2;PMS_P1;PMS_P2;Temp;Humidity;BMP_temperature;BMP_pressure;BME280_temperature;BME280_humidity;BME280_pressure;Samples;Min_cycle;Max_cycle;Signal;HPM_P1;HPM_P2
2023/09/07 00:02:25;;;;;;;3.53;2.83;;;;;;;;;;4972605;28;20227;-71
2023/09/07 00:04:50;;;;;;;3.60;3.07;;;;;;;;;;4971569;28;20264;-72
2023/09/07 00:07:15;;;;;;;3.70;2.97;;;;;;;;;;4968576;28;20309;-73
2023/09/07 00:09:41;;;;;;;2.87;2.67;;;;;;;;;;4965958;28;20186;-73
2023/09/07 00:12:06;;;;;;;6.10;2.90;;;;;;;;;;4967151;28;20181;-72
2023/09/07 00:14:31;;;;;;;8.47;3.70;;;;;;;;;;4970640;28;20184;-72
2023/09/07 00:16:57;;;;;;;3.27;2.97;;;;;;;;;;4972816;28;20274;-72
2023/09/07 00:19:22;;;;;;;3.07;2.87;;;;;;;;;;4968089;28;20175;-72
2023/09/07 00:21:47;;;;;;;4.37;2.90;;;;;;;;;;4971962;28;20202;-72
2023/09/07 00:24:12;;;;;;;3.20;2.90;;;;;;;;;;4971658;28;20224;-72
2023/09/07 00:26:37;;;;;;;3.50;3.00;;;;;;;;;;4968504;28;20188;-72
2023/09/07 00:29:02;;;;;;;5.10;3.17;;;;;;;;;;4968856;28;20195;-72
2023/09/07 00:31:28;;;;;;;3.50;3.20;;;;;;;;;;4967703;28;20269;-73
2023/09/07 00:33:53;;;;;;;4.40;2.90;;;;;;;;;;4970382;28;21507;-72
2023/09/07 00:36:18;;;;;;;2.80;2.60;;;;;;;;;;4972495;28;20274;-73
2023/09/07 00:38:44;;;;;;;3.10;2.90;;;;;;;;;;4967354;28;20199;-73
2023/09/07 00:41:09;;;;;;;3.10;2.90;;;;;;;;;;4969861;28;20184;-72
2023/09/07 00:43:34;;;;;;;3.07;2.87;;;;;;;;;;4973990;28;20195;-73
2023/09/07 00:45:59;;;;;;;3.47;2.80;;;;;;;;;;4965569;28;20177;-72
2023/09/07 00:48:24;;;;;;;3.00;2.70;;;;;;;;;;4972523;28;20201;-72
2023/09/07 00:50:50;;;;;;;3.40;2.60;;;;;;;;;;4966859;28;20178;-72
2023/09/07 00:53:15;;;;;;;3.77;2.80;;;;;;;;;;4973552;28;20273;-72
2023/09/07 00:55:40;;;;;;;3.70;2.97;;;;;;;;;;4969820;28;20207;-72
2023/09/07 00:58:05;;;;;;;4.87;3.10;;;;;;;;;;4970693;28;20215;-72
2023/09/07 01:00:31;;;;;;;3.40;3.10;;;;;;;;;;4966702;28;20194;-73
2023/09/07 01:02:56;;;;;;;3.20;2.90;;;;;;;;;;4969281;28;20304;-72
2023/09/07 01:05:24;;;;;;;4.07;3.00;;;;;;;;;;4971012;28;20167;-72
2023/09/07 01:07:54;;;;;;;3.90;2.60;;;;;;;;;;4971793;28;20231;-72
2023/09/07 01:10:20;;;;;;;3.10;2.80;;;;;;;;;;4971228;28;20255;-73
2023/09/07 01:12:46;;;;;;;2.87;2.67;;;;;;;;;;4967620;28;20188;-72
2023/09/07 01:15:11;;;;;;;3.47;3.17;;;;;;;;;;4969203;28;20211;-72
2023/09/07 01:17:36;;;;;;;3.83;3.43;;;;;;;;;;4967618;28;20265;-72
2023/09/07 01:20:09;;;;;;;3.03;2.83;;;;;;;;;;4965081;28;20189;-72
2023/09/07 01:22:35;;;;;;;3.33;3.03;;;;;;;;;;4965871;28;20209;-73
2023/09/07 01:25:01;;;;;;;3.57;3.10;;;;;;;;;;4970214;28;20228;-72
2023/09/07 01:27:27;;;;;;;3.67;3.33;;;;;;;;;;4973388;28;20273;-72
2023/09/07 01:29:52;;;;;;;3.57;3.03;;;;;;;;;;4969159;28;20190;-72
2023/09/07 01:32:17;;;;;;;3.40;2.80;;;;;;;;;;4965496;28;20188;-73
2023/09/07 01:34:42;;;;;;;3.10;2.90;;;;;;;;;;4966632;28;20187;-73
2023/09/07 01:37:08;;;;;;;3.53;3.23;;;;;;;;;;4968239;28;20209;-72
2023/09/07 01:39:33;;;;;;;3.23;2.93;;;;;;;;;;4967415;28;20201;-72
2023/09/07 01:41:58;;;;;;;4.90;3.40;;;;;;;;;;4975061;28;20169;-72
2023/09/07 01:44:23;;;;;;;3.77;3.37;;;;;;;;;;4974021;28;20178;-73
2023/09/07 01:46:48;;;;;;;3.20;2.90;;;;;;;;;;4965363;28;20186;-72
2023/09/07 01:49:14;;;;;;;4.80;2.87;;;;;;;;;;4967631;28;20241;-72
2023/09/07 01:51:39;;;;;;;3.60;3.30;;;;;;;;;;4962982;28;20186;-72
2023/09/07 01:54:05;;;;;;;3.93;3.20;;;;;;;;;;4971312;28;20182;-72
2023/09/07 01:56:30;;;;;;;4.93;2.83;;;;;;;;;;4967934;28;20197;-72
2023/09/07 01:58:55;;;;;;;3.10;2.90;;;;;;;;;;4965493;28;20177;-73
2023/09/07 02:01:41;;;;;;;3.33;3.03;;;;;;;;;;4967006;28;20238;-73
2023/09/07 02:04:06;;;;;;;4.70;3.30;;;;;;;;;;4965081;28;20184;-73
2023/09/07 02:06:31;;;;;;;3.47;3.17;;;;;;;;;;4966347;28;20195;-72
2023/09/07 02:08:57;;;;;;;3.70;3.40;;;;;;;;;;4969964;28;20198;-72
2023/09/07 02:11:22;;;;;;;3.43;3.13;;;;;;;;;;4967819;28;20242;-72
2023/09/07 02:13:47;;;;;;;3.10;2.80;;;;;;;;;;4970221;28;20291;-72
2023/09/07 02:16:13;;;;;;;3.40;3.10;;;;;;;;;;4966654;28;20627;-72
2023/09/07 02:18:46;;;;;;;3.87;3.47;;;;;;;;;;4972180;28;20504;-72
2023/09/07 02:21:12;;;;;;;4.77;3.33;;;;;;;;;;4966020;28;20188;-73
2023/09/07 02:23:37;;;;;;;3.00;2.70;;;;;;;;;;4969723;28;20181;-73
2023/09/07 02:26:03;;;;;;;3.57;2.90;;;;;;;;;;4970357;28;20183;-72
2023/09/07 02:28:28;;;;;;;3.17;2.90;;;;;;;;;;4968667;28;20271;-73
2023/09/07 02:30:53;;;;;;;3.37;3.07;;;;;;;;;;4963403;28;20205;-72
2023/09/07 02:33:18;;;;;;;3.40;3.10;;;;;;;;;;4966346;28;20277;-73
2023/09/07 02:35:44;;;;;;;3.33;2.80;;;;;;;;;;4968834;28;20209;-72
2023/09/07 02:38:09;;;;;;;3.00;2.80;;;;;;;;;;4969401;28;20187;-73
2023/09/07 02:40:42;;;;;;;3.37;3.07;;;;;;;;;;4967286;28;20200;-73
2023/09/07 02:43:07;;;;;;;3.37;2.90;;;;;;;;;;4970628;28;20200;-72
2023/09/07 02:45:32;;;;;;;4.17;3.47;;;;;;;;;;4966369;28;20185;-72
2023/09/07 02:47:57;;;;;;;4.17;3.50;;;;;;;;;;4967778;28;20183;-72
2023/09/07 02:50:22;;;;;;;3.13;2.93;;;;;;;;;;4961738;28;20181;-73
2023/09/07 02:52:47;;;;;;;3.77;3.23;;;;;;;;;;4968766;28;20181;-72
2023/09/07 02:55:13;;;;;;;4.33;2.83;;;;;;;;;;4969484;28;20176;-73
2023/09/07 02:57:38;;;;;;;3.93;3.03;;;;;;;;;;4968084;28;20239;-72
2023/09/07 03:00:09;;;;;;;3.30;2.80;;;;;;;;;;4963784;28;20679;-73
2023/09/07 03:02:34;;;;;;;4.53;2.80;;;;;;;;;;4966495;28;20251;-72
2023/09/07 03:04:59;;;;;;;5.70;3.27;;;;;;;;;;4965574;28;20186;-72
2023/09/07 03:07:25;;;;;;;3.77;3.47;;;;;;;;;;4964275;28;20192;-73
2023/09/07 03:09:51;;;;;;;5.73;3.60;;;;;;;;;;4968590;28;20223;-72
2023/09/07 03:12:16;;;;;;;5.50;3.33;;;;;;;;;;4968952;28;20190;-72
2023/09/07 03:14:44;;;;;;;3.87;3.47;;;;;;;;;;4967105;28;20472;-72
2023/09/07 03:17:09;;;;;;;3.50;3.20;;;;;;;;;;4963886;28;20202;-72
2023/09/07 03:19:35;;;;;;;4.30;3.17;;;;;;;;;;4969317;28;20185;-73
2023/09/07 03:22:01;;;;;;;4.53;2.90;;;;;;;;;;4966997;28;20172;-72
2023/09/07 03:24:26;;;;;;;4.37;3.07;;;;;;;;;;4965007;28;20171;-72
2023/09/07 03:26:52;;;;;;;4.10;3.47;;;;;;;;;;4972153;28;20224;-72
2023/09/07 03:29:17;;;;;;;3.07;2.87;;;;;;;;;;4966872;28;20264;-72
2023/09/07 03:31:42;;;;;;;3.90;3.50;;;;;;;;;;4964872;28;20188;-72
2023/09/07 03:34:07;;;;;;;3.73;3.43;;;;;;;;;;4962189;28;20188;-73
2023/09/07 03:36:32;;;;;;;3.73;3.43;;;;;;;;;;4962289;28;20205;-72
2023/09/07 03:38:58;;;;;;;3.97;3.60;;;;;;;;;;4967149;28;20549;-72
2023/09/07 03:41:23;;;;;;;5.97;3.77;;;;;;;;;;4969707;28;20229;-73
2023/09/07 03:43:48;;;;;;;5.53;3.80;;;;;;;;;;4970021;28;20181;-72
2023/09/07 03:46:13;;;;;;;3.93;3.53;;;;;;;;;;4960698;28;20204;-73
2023/09/07 03:48:39;;;;;;;4.13;3.73;;;;;;;;;;4967956;28;20183;-73
2023/09/07 03:51:07;;;;;;;5.93;3.53;;;;;;;;;;4968895;28;20172;-72
2023/09/07 03:53:32;;;;;;;3.97;3.57;;;;;;;;;;4962606;28;20239;-73
2023/09/07 03:55:57;;;;;;;4.30;3.67;;;;;;;;;;4967521;28;20207;-73
2023/09/07 03:58:23;;;;;;;4.30;3.90;;;;;;;;;;4963636;28;20188;-72
2023/09/07 04:00:48;;;;;;;4.83;3.70;;;;;;;;;;4964869;28;20187;-74
2023/09/07 04:03:13;;;;;;;4.33;3.93;;;;;;;;;;4969276;28;20275;-73
2023/09/07 04:05:39;;;;;;;7.23;3.83;;;;;;;;;;4968535;28;20268;-72
2023/09/07 04:08:05;;;;;;;3.90;3.60;;;;;;;;;;4968580;28;20279;-72
2023/09/07 04:10:30;;;;;;;4.47;4.03;;;;;;;;;;4966615;28;20223;-73
2023/09/07 04:12:55;;;;;;;4.90;3.40;;;;;;;;;;4970508;28;20211;-72
2023/09/07 04:15:20;;;;;;;6.93;3.90;;;;;;;;;;4970937;28;20188;-72
2023/09/07 04:17:46;;;;;;;8.77;4.20;;;;;;;;;;4967477;28;20232;-72
2023/09/07 04:20:11;;;;;;;4.50;4.10;;;;;;;;;;4967921;28;20234;-72
2023/09/07 04:22:38;;;;;;;4.63;4.20;;;;;;;;;;4971940;28;20184;-73
2023/09/07 04:25:03;;;;;;;4.17;3.87;;;;;;;;;;4966954;28;20174;-73
2023/09/07 04:27:28;;;;;;;23.57;5.80;;;;;;;;;;4970004;28;20192;-73
2023/09/07 04:29:53;;;;;;;4.67;4.27;;;;;;;;;;4971377;28;20176;-73
2023/09/07 04:32:19;;;;;;;4.50;4.10;;;;;;;;;;4964870;28;20185;-73
2023/09/07 04:34:44;;;;;;;4.60;4.20;;;;;;;;;;4968661;28;20279;-72
2023/09/07 04:37:09;;;;;;;4.73;4.20;;;;;;;;;;4967109;28;20199;-72
2023/09/07 04:39:34;;;;;;;6.23;4.60;;;;;;;;;;4964965;28;20177;-72
2023/09/07 04:41:59;;;;;;;4.33;3.93;;;;;;;;;;4970876;28;20221;-73
2023/09/07 04:44:26;;;;;;;12.83;5.00;;;;;;;;;;4969080;28;20180;-73
2023/09/07 04:46:52;;;;;;;8.07;3.97;;;;;;;;;;4967040;28;20180;-73
2023/09/07 04:49:17;;;;;;;5.37;4.87;;;;;;;;;;4972198;28;20183;-73
2023/09/07 04:51:42;;;;;;;4.10;3.80;;;;;;;;;;4971795;28;20184;-73
2023/09/07 04:54:08;;;;;;;4.73;4.33;;;;;;;;;;4970302;28;20176;-72
2023/09/07 04:56:33;;;;;;;4.60;4.20;;;;;;;;;;4969688;28;20203;-73
2023/09/07 04:58:58;;;;;;;5.57;4.43;;;;;;;;;;4971394;28;20212;-73
2023/09/07 05:01:23;;;;;;;8.53;4.90;;;;;;;;;;4971042;28;20227;-73
2023/09/07 05:03:50;;;;;;;5.77;4.73;;;;;;;;;;4968485;28;20279;-73
2023/09/07 05:06:16;;;;;;;8.30;5.03;;;;;;;;;;4970478;28;20184;-72
2023/09/07 05:08:41;;;;;;;7.83;5.00;;;;;;;;;;4967265;28;20238;-73
2023/09/07 05:11:06;;;;;;;5.50;4.53;;;;;;;;;;4967100;28;20220;-73
2023/09/07 05:13:32;;;;;;;8.17;5.03;;;;;;;;;;4967379;28;20207;-73
2023/09/07 05:15:58;;;;;;;13.57;5.73;;;;;;;;;;4967073;28;20195;-73
2023/09/07 05:18:23;;;;;;;5.27;4.57;;;;;;;;;;4971379;28;20271;-73
2023/09/07 05:20:51;;;;;;;7.53;5.20;;;;;;;;;;4964555;28;20267;-73
2023/09/07 05:23:17;;;;;;;10.77;5.77;;;;;;;;;;4972366;28;20196;-73
2023/09/07 05:25:46;;;;;;;27.87;7.33;;;;;;;;;;4974386;28;20218;-72
2023/09/07 05:28:13;;;;;;;5.07;4.57;;;;;;;;;;4963863;28;20189;-73
2023/09/07 05:30:38;;;;;;;8.70;4.90;;;;;;;;;;4965946;28;20176;-73
2023/09/07 05:33:03;;;;;;;10.10;5.63;;;;;;;;;;4969901;28;20188;-73
2023/09/07 05:35:32;;;;;;;5.77;5.27;;;;;;;;;;4969784;28;20191;-78
2023/09/07 05:37:57;;;;;;;5.10;4.67;;;;;;;;;;4964905;28;20235;-74
2023/09/07 05:40:22;;;;;;;9.67;5.30;;;;;;;;;;4967147;28;20271;-75
2023/09/07 05:42:47;;;;;;;7.00;5.07;;;;;;;;;;4973969;28;20274;-74
2023/09/07 05:45:13;;;;;;;5.00;4.50;;;;;;;;;;4970853;28;20385;-74
2023/09/07 05:47:38;;;;;;;5.07;4.57;;;;;;;;;;4968489;28;20183;-75
2023/09/07 05:50:04;;;;;;;8.70;5.37;;;;;;;;;;4963497;28;20182;-75
2023/09/07 05:52:29;;;;;;;5.97;5.07;;;;;;;;;;4967245;28;20267;-74
2023/09/07 05:54:54;;;;;;;6.20;4.90;;;;;;;;;;4969681;28;20178;-74
2023/09/07 05:57:19;;;;;;;6.90;5.67;;;;;;;;;;4969656;28;20227;-74
2023/09/07 05:59:44;;;;;;;8.00;5.30;;;;;;;;;;5270294;23;20313;-75
2023/09/07 06:02:10;;;;;;;7.27;5.17;;;;;;;;;;4975342;28;20198;-74
2023/09/07 06:04:36;;;;;;;5.50;5.00;;;;;;;;;;4975776;28;20185;-74
2023/09/07 06:07:01;;;;;;;5.17;4.67;;;;;;;;;;4970053;28;20170;-74
2023/09/07 06:09:26;;;;;;;5.00;4.50;;;;;;;;;;4969873;28;20182;-74
2023/09/07 06:11:51;;;;;;;6.80;4.60;;;;;;;;;;4968899;28;20184;-74
2023/09/07 06:14:16;;;;;;;4.50;4.10;;;;;;;;;;4989967;28;20180;-74
2023/09/07 06:16:42;;;;;;;7.83;5.00;;;;;;;;;;4987060;28;20286;-75
2023/09/07 06:19:07;;;;;;;7.47;5.00;;;;;;;;;;4968469;28;20174;-74
2023/09/07 06:21:32;;;;;;;5.17;4.50;;;;;;;;;;4971941;28;20177;-74
2023/09/07 06:23:57;;;;;;;5.90;5.30;;;;;;;;;;4970750;28;20237;-74
2023/09/07 06:26:23;;;;;;;5.97;4.47;;;;;;;;;;4971765;28;20251;-74
2023/09/07 06:28:48;;;;;;;5.00;4.60;;;;;;;;;;4987787;28;20249;-74
2023/09/07 06:31:13;;;;;;;6.60;4.77;;;;;;;;;;4971494;28;20234;-74
2023/09/07 06:33:38;;;;;;;8.17;4.67;;;;;;;;;;4972128;28;20188;-75
2023/09/07 06:36:04;;;;;;;4.70;4.30;;;;;;;;;;4971937;28;20192;-74
2023/09/07 06:38:29;;;;;;;5.50;4.83;;;;;;;;;;4984636;28;20215;-75
2023/09/07 06:40:54;;;;;;;5.67;5.17;;;;;;;;;;4981272;28;20193;-74
2023/09/07 06:43:20;;;;;;;5.57;5.03;;;;;;;;;;4971888;28;20184;-74
2023/09/07 06:45:45;;;;;;;5.30;4.90;;;;;;;;;;4972132;28;20184;-74
2023/09/07 06:48:10;;;;;;;5.93;5.40;;;;;;;;;;4972597;28;20206;-75
2023/09/07 06:50:35;;;;;;;11.17;6.20;;;;;;;;;;4977441;28;20203;-74
2023/09/07 06:53:00;;;;;;;6.63;4.87;;;;;;;;;;4990495;28;20184;-74
2023/09/07 06:55:26;;;;;;;9.80;4.97;;;;;;;;;;4972752;28;20248;-74
2023/09/07 06:57:53;;;;;;;5.90;4.60;;;;;;;;;;4968866;28;20256;-74
2023/09/07 07:00:18;;;;;;;6.03;5.43;;;;;;;;;;4989708;28;20257;-75
2023/09/07 07:02:43;;;;;;;6.10;4.97;;;;;;;;;;4974832;28;20216;-74
2023/09/07 07:05:09;;;;;;;5.83;5.10;;;;;;;;;;4979261;28;20269;-74
2023/09/07 07:07:34;;;;;;;5.23;4.73;;;;;;;;;;4976365;28;20292;-74
2023/09/07 07:09:59;;;;;;;5.90;5.40;;;;;;;;;;4979018;28;20225;-74
2023/09/07 07:12:26;;;;;;;5.57;4.87;;;;;;;;;;4975898;28;20188;-74
2023/09/07 07:14:51;;;;;;;5.10;4.70;;;;;;;;;;4989659;28;20176;-75
2023/09/07 07:17:16;;;;;;;5.80;5.30;;;;;;;;;;4973785;28;21004;-75
2023/09/07 07:19:43;;;;;;;7.57;5.00;;;;;;;;;;4989267;28;20186;-75
2023/09/07 07:22:08;;;;;;;5.00;4.60;;;;;;;;;;4973224;28;20175;-74
2023/09/07 07:24:34;;;;;;;5.20;4.60;;;;;;;;;;4972619;28;20189;-75
2023/09/07 07:26:59;;;;;;;5.37;4.87;;;;;;;;;;4993099;28;20184;-74
2023/09/07 07:29:24;;;;;;;5.60;5.07;;;;;;;;;;4973722;28;20232;-75
2023/09/07 07:31:49;;;;;;;4.97;4.57;;;;;;;;;;4989338;28;20182;-75
2023/09/07 07:34:15;;;;;;;5.83;5.27;;;;;;;;;;4988621;28;20179;-75
2023/09/07 07:36:40;;;;;;;6.10;5.20;;;;;;;;;;4990583;28;20214;-74
2023/09/07 07:39:07;;;;;;;5.03;4.53;;;;;;;;;;4977315;28;20176;-74
2023/09/07 07:41:32;;;;;;;4.67;4.27;;;;;;;;;;4979127;28;20179;-75
2023/09/07 07:43:57;;;;;;;4.10;3.80;;;;;;;;;;4994469;28;20170;-74
2023/09/07 07:49:07;;;;;;;6.03;5.03;;;;;;;;;;5328773;23;20259;-75
2023/09/07 07:51:32;;;;;;;11.17;5.50;;;;;;;;;;4955755;28;20179;-74
2023/09/07 07:53:57;;;;;;;6.73;5.10;;;;;;;;;;4956924;28;20376;-75
2023/09/07 07:56:22;;;;;;;4.30;3.90;;;;;;;;;;4955196;28;20216;-75
2023/09/07 07:58:48;;;;;;;6.27;5.00;;;;;;;;;;4957666;28;20180;-74
2023/09/07 08:01:14;;;;;;;5.93;5.33;;;;;;;;;;4958087;28;20172;-75
2023/09/07 08:03:39;;;;;;;6.30;5.43;;;;;;;;;;4955725;28;20299;-75
2023/09/07 08:06:05;;;;;;;5.20;4.73;;;;;;;;;;4958432;28;20276;-74
2023/09/07 08:08:30;;;;;;;7.00;5.10;;;;;;;;;;4957074;28;20255;-75
2023/09/07 08:10:57;;;;;;;6.77;5.30;;;;;;;;;;4954097;28;20177;-75
2023/09/07 08:13:22;;;;;;;8.27;5.00;;;;;;;;;;4975305;28;20233;-75
2023/09/07 08:15:48;;;;;;;4.87;4.33;;;;;;;;;;4957954;28;20292;-74
2023/09/07 08:18:14;;;;;;;7.53;4.93;;;;;;;;;;4972687;28;20180;-75
2023/09/07 08:20:41;;;;;;;5.43;4.93;;;;;;;;;;4953918;28;20181;-75
2023/09/07 08:23:07;;;;;;;5.03;4.63;;;;;;;;;;4956619;28;20234;-74
2023/09/07 08:25:32;;;;;;;5.33;4.93;;;;;;;;;;4953475;28;20294;-75
2023/09/07 08:27:59;;;;;;;14.70;6.47;;;;;;;;;;4973978;28;20177;-75
2023/09/07 08:30:25;;;;;;;6.10;5.43;;;;;;;;;;4972664;28;20182;-75
2023/09/07 08:32:51;;;;;;;6.03;5.53;;;;;;;;;;4973461;28;20193;-75
2023/09/07 08:35:17;;;;;;;5.63;4.93;;;;;;;;;;4960069;28;20175;-75
2023/09/07 08:37:42;;;;;;;6.70;4.80;;;;;;;;;;4957982;28;20205;-75
2023/09/07 08:40:08;;;;;;;5.80;5.07;;;;;;;;;;4956584;28;20174;-75
2023/09/07 08:42:37;;;;;;;39.23;9.47;;;;;;;;;;4973559;28;20203;-74
2023/09/07 08:45:06;;;;;;;9.07;5.40;;;;;;;;;;4970706;28;20193;-74
2023/09/07 08:47:32;;;;;;;5.60;5.10;;;;;;;;;;4955566;28;20173;-75
2023/09/07 08:49:57;;;;;;;5.57;5.07;;;;;;;;;;4971318;28;20194;-75
2023/09/07 08:52:22;;;;;;;5.73;5.23;;;;;;;;;;4956542;28;20178;-75
2023/09/07 08:54:48;;;;;;;5.93;4.83;;;;;;;;;;4971615;28;20204;-75
2023/09/07 08:57:13;;;;;;;5.10;4.60;;;;;;;;;;4955922;28;20210;-75
2023/09/07 08:59:38;;;;;;;11.70;6.33;;;;;;;;;;4954840;28;20250;-74
2023/09/07 09:02:07;;;;;;;5.27;4.77;;;;;;;;;;4956402;28;20177;-74
2023/09/07 09:04:32;;;;;;;5.40;5.00;;;;;;;;;;4952171;28;20176;-75
2023/09/07 09:06:58;;;;;;;8.33;5.80;;;;;;;;;;4954566;28;20247;-75
2023/09/07 09:09:24;;;;;;;10.00;6.03;;;;;;;;;;4955215;28;20172;-75
2023/09/07 09:11:49;;;;;;;5.50;5.00;;;;;;;;;;4954521;28;20180;-74
2023/09/07 09:14:17;;;;;;;6.90;5.33;;;;;;;;;;4955100;28;20232;-75
2023/09/07 09:16:47;;;;;;;5.82;4.65;;;;;;;;;;4972548;28;20231;-75
2023/09/07 09:19:13;;;;;;;5.80;5.13;;;;;;;;;;4955677;28;20268;-75
2023/09/07 09:21:38;;;;;;;6.13;5.22;;;;;;;;;;4953399;28;20295;-75
2023/09/07 09:24:09;;;;;;;5.93;5.43;;;;;;;;;;4972931;28;20168;-75
2023/09/07 09:26:36;;;;;;;5.63;5.13;;;;;;;;;;4971884;28;20169;-75
2023/09/07 09:29:01;;;;;;;6.57;5.32;;;;;;;;;;4973700;28;20177;-75
2023/09/07 09:31:26;;;;;;;5.72;5.22;;;;;;;;;;4956056;28;20181;-75
2023/09/07 09:33:52;;;;;;;5.55;4.95;;;;;;;;;;4952353;28;20181;-75
2023/09/07 09:36:17;;;;;;;5.63;5.15;;;;;;;;;;4949601;28;20197;-75
2023/09/07 09:38:46;;;;;;;10.48;5.80;;;;;;;;;;4951916;28;20191;-75
2023/09/07 09:41:12;;;;;;;5.20;4.80;;;;;;;;;;4953994;28;20169;-75
2023/09/07 09:43:37;;;;;;;6.20;5.60;;;;;;;;;;4949237;28;20183;-75
2023/09/07 09:46:03;;;;;;;14.25;6.32;;;;;;;;;;4971955;28;20168;-75
2023/09/07 09:48:28;;;;;;;6.20;5.63;;;;;;;;;;4951868;28;20229;-74
2023/09/07 09:50:54;;;;;;;5.75;5.25;;;;;;;;;;4950138;29;20213;-75
2023/09/07 09:53:20;;;;;;;6.07;5.47;;;;;;;;;;4950865;29;20184;-75
2023/09/07 09:55:49;;;;;;;5.57;5.18;;;;;;;;;;4951978;28;20266;-74
2023/09/07 09:58:14;;;;;;;5.30;4.80;;;;;;;;;;4953509;28;20169;-74
2023/09/07 10:00:44;;;;;;;6.00;5.50;;;;;;;;;;4949911;28;20183;-75
2023/09/07 10:03:15;;;;;;;5.32;4.80;;;;;;;;;;4966032;28;20178;-75
2023/09/07 10:05:40;;;;;;;5.15;4.75;;;;;;;;;;4949043;29;20260;-75
2023/09/07 10:08:09;;;;;;;5.13;4.72;;;;;;;;;;4951367;29;20289;-75
2023/09/07 10:10:36;;;;;;;5.05;4.57;;;;;;;;;;4950858;29;20558;-75
2023/09/07 10:13:01;;;;;;;5.50;5.00;;;;;;;;;;4948439;29;20216;-75
2023/09/07 10:15:27;;;;;;;5.40;4.90;;;;;;;;;;4951317;28;20174;-75
2023/09/07 10:18:12;;;;;;;5.57;4.95;;;;;;;;;;4950206;29;20259;-75
2023/09/07 10:20:52;;;;;;;6.07;5.30;;;;;;;;;;4944383;29;20184;-75
2023/09/07 10:23:17;;;;;;;6.25;4.93;;;;;;;;;;4949025;29;20200;-75
2023/09/07 10:25:47;;;;;;;8.38;4.82;;;;;;;;;;4948334;29;20185;-75
2023/09/07 10:28:20;;;;;;;6.20;5.70;;;;;;;;;;4950607;29;20284;-75
2023/09/07 10:30:45;;;;;;;6.32;5.43;;;;;;;;;;4949561;29;20196;-75
2023/09/07 10:33:20;;;;;;;6.00;5.28;;;;;;;;;;4952319;28;20166;-75
2023/09/07 10:35:46;;;;;;;6.38;5.50;;;;;;;;;;4945530;29;20173;-75
2023/09/07 10:38:13;;;;;;;123.13;20.27;;;;;;;;;;4951190;29;20173;-74
2023/09/07 10:40:39;;;;;;;5.38;4.93;;;;;;;;;;4945047;29;20252;-75
2023/09/07 10:43:04;;;;;;;5.70;5.20;;;;;;;;;;4952817;28;20285;-74
2023/09/07 10:45:29;;;;;;;7.22;5.32;;;;;;;;;;4950362;29;20181;-75
2023/09/07 10:47:55;;;;;;;4.68;4.25;;;;;;;;;;4953884;28;20677;-75
2023/09/07 10:50:20;;;;;;;150.77;20.45;;;;;;;;;;4953879;28;20177;-74
2023/09/07 10:52:45;;;;;;;5.78;5.18;;;;;;;;;;4969371;28;20208;-75
2023/09/07 10:55:11;;;;;;;5.03;4.65;;;;;;;;;;4953775;28;20177;-74
2023/09/07 10:57:43;;;;;;;6.03;5.43;;;;;;;;;;4971113;28;20207;-75
2023/09/07 11:00:10;;;;;;;5.75;5.25;;;;;;;;;;4968061;28;20177;-75
2023/09/07 11:02:36;;;;;;;6.30;5.30;;;;;;;;;;4951699;28;20184;-75
2023/09/07 11:05:02;;;;;;;5.70;5.20;;;;;;;;;;4951497;28;20177;-75
2023/09/07 11:07:27;;;;;;;5.72;5.20;;;;;;;;;;4954302;28;20249;-75
2023/09/07 11:09:54;;;;;;;6.95;5.05;;;;;;;;;;4951922;28;20176;-75
2023/09/07 11:12:21;;;;;;;5.97;5.50;;;;;;;;;;4953375;28;20180;-75
2023/09/07 11:14:48;;;;;;;21.75;6.35;;;;;;;;;;4957229;28;20184;-75
2023/09/07 11:17:13;;;;;;;5.57;5.07;;;;;;;;;;4957117;28;20235;-75
2023/09/07 11:19:38;;;;;;;5.40;5.00;;;;;;;;;;4955326;28;20201;-75
2023/09/07 11:22:04;;;;;;;6.03;5.43;;;;;;;;;;4957773;28;20173;-75
2023/09/07 11:24:29;;;;;;;5.82;5.32;;;;;;;;;;4957956;28;20187;-75
2023/09/07 11:26:57;;;;;;;5.50;5.05;;;;;;;;;;4954380;28;20180;-75
2023/09/07 11:29:22;;;;;;;5.97;4.90;;;;;;;;;;4957212;28;20180;-74
2023/09/07 11:31:48;;;;;;;6.03;5.53;;;;;;;;;;4956001;28;20185;-75
2023/09/07 11:34:14;;;;;;;6.32;5.82;;;;;;;;;;4955162;28;20185;-75
2023/09/07 11:36:39;;;;;;;10.30;5.60;;;;;;;;;;4954869;28;20236;-75
2023/09/07 11:39:13;;;;;;;6.32;5.78;;;;;;;;;;4955887;28;20201;-75
2023/09/07 11:41:40;;;;;;;6.10;5.57;;;;;;;;;;4958523;28;20184;-76
2023/09/07 11:44:06;;;;;;;5.30;4.80;;;;;;;;;;4953946;28;20173;-75
2023/09/07 11:46:31;;;;;;;6.07;5.00;;;;;;;;;;4974425;28;20192;-75
2023/09/07 11:48:56;;;;;;;6.82;4.97;;;;;;;;;;4953928;29;20229;-75
2023/09/07 11:51:21;;;;;;;6.78;5.15;;;;;;;;;;4951965;29;20269;-75
2023/09/07 11:53:47;;;;;;;6.03;5.43;;;;;;;;;;4953149;29;20205;-75
2023/09/07 11:56:12;;;;;;;6.00;5.13;;;;;;;;;;4954569;28;20217;-75
2023/09/07 11:58:37;;;;;;;6.28;5.30;;;;;;;;;;4954014;29;20256;-75
2023/09/07 12:01:04;;;;;;;4.95;4.60;;;;;;;;;;4950060;29;20241;-75
2023/09/07 12:03:30;;;;;;;5.78;5.28;;;;;;;;;;4955405;29;20169;-75
2023/09/07 12:05:55;;;;;;;7.45;5.75;;;;;;;;;;4953026;29;20173;-75
2023/09/07 12:08:20;;;;;;;5.75;5.30;;;;;;;;;;4953438;29;20320;-75
2023/09/07 12:10:46;;;;;;;5.82;5.10;;;;;;;;;;4952251;29;20182;-75
2023/09/07 12:13:12;;;;;;;8.40;5.18;;;;;;;;;;4952809;28;20184;-74
2023/09/07 12:15:37;;;;;;;5.75;5.25;;;;;;;;;;4954492;28;20260;-74
2023/09/07 12:18:02;;;;;;;6.10;5.55;;;;;;;;;;4953293;29;20173;-74
2023/09/07 12:20:28;;;;;;;5.78;5.28;;;;;;;;;;4951625;29;20178;-75
2023/09/07 12:22:53;;;;;;;6.97;5.20;;;;;;;;;;4951087;28;20173;-75
2023/09/07 12:25:18;;;;;;;6.20;5.60;;;;;;;;;;4951201;29;20182;-75
2023/09/07 12:27:45;;;;;;;5.95;5.45;;;;;;;;;;4952654;29;20510;-75
2023/09/07 12:30:12;;;;;;;9.40;5.60;;;;;;;;;;4953337;28;20173;-75
2023/09/07 12:32:38;;;;;;;5.88;5.40;;;;;;;;;;4953061;29;20213;-75
2023/09/07 12:35:08;;;;;;;7.80;5.80;;;;;;;;;;4952242;29;20174;-75
2023/09/07 12:37:33;;;;;;;6.28;5.75;;;;;;;;;;4954387;28;20261;-75
2023/09/07 12:39:58;;;;;;;5.57;5.07;;;;;;;;;;4951837;29;20264;-75
2023/09/07 12:42:24;;;;;;;6.60;5.72;;;;;;;;;;4956429;28;20677;-75
2023/09/07 12:44:49;;;;;;;6.35;5.78;;;;;;;;;;4952060;29;20177;-74
2023/09/07 12:47:14;;;;;;;6.70;5.93;;;;;;;;;;4952700;28;20169;-75
2023/09/07 12:49:40;;;;;;;6.90;5.73;;;;;;;;;;4951171;29;20240;-74
2023/09/07 12:52:08;;;;;;;6.40;5.78;;;;;;;;;;4952501;29;20478;-75
2023/09/07 12:54:34;;;;;;;7.25;5.85;;;;;;;;;;4950636;28;20212;-75
2023/09/07 12:56:59;;;;;;;6.28;5.72;;;;;;;;;;4952977;29;20208;-75
2023/09/07 12:59:24;;;;;;;7.53;5.10;;;;;;;;;;4952088;29;20178;-75
2023/09/07 13:01:50;;;;;;;5.90;5.40;;;;;;;;;;4951978;29;20407;-75
2023/09/07 13:04:15;;;;;;;5.85;5.35;;;;;;;;;;4954025;28;20174;-75
2023/09/07 13:06:41;;;;;;;7.32;5.13;;;;;;;;;;4952388;29;20236;-75
2023/09/07 13:09:07;;;;;;;6.10;5.45;;;;;;;;;;4951858;29;20201;-75
2023/09/07 13:11:33;;;;;;;6.38;5.88;;;;;;;;;;4952156;29;20260;-75
2023/09/07 13:13:59;;;;;;;6.22;5.68;;;;;;;;;;4950299;29;20260;-75
2023/09/07 13:16:24;;;;;;;6.47;5.72;;;;;;;;;;4950579;28;20198;-74
2023/09/07 13:18:49;;;;;;;7.00;6.40;;;;;;;;;;4952063;29;20193;-75
2023/09/07 13:21:15;;;;;;;6.35;5.72;;;;;;;;;;4952966;28;20168;-75
2023/09/07 13:23:41;;;;;;;6.30;5.70;;;;;;;;;;4951801;29;20176;-75
2023/09/07 13:26:06;;;;;;;6.82;5.25;;;;;;;;;;4950868;29;20173;-75
2023/09/07 13:28:32;;;;;;;6.50;5.90;;;;;;;;;;4948866;29;20201;-75
2023/09/07 13:30:57;;;;;;;5.72;5.32;;;;;;;;;;4949867;29;20177;-75
2023/09/07 13:33:22;;;;;;;6.00;5.60;;;;;;;;;;4951963;29;20176;-74
2023/09/07 13:35:48;;;;;;;9.10;5.93;;;;;;;;;;4950702;28;20173;-74
2023/09/07 13:38:13;;;;;;;6.03;5.53;;;;;;;;;;4953757;28;20185;-75
2023/09/07 13:40:39;;;;;;;6.78;6.10;;;;;;;;;;4950010;28;20181;-75
2023/09/07 13:43:04;;;;;;;6.03;5.47;;;;;;;;;;4947930;28;20184;-75
2023/09/07 13:45:29;;;;;;;9.75;6.70;;;;;;;;;;4951432;29;20232;-75
2023/09/07 13:47:55;;;;;;;8.13;6.10;;;;;;;;;;4954278;28;20243;-75
2023/09/07 13:50:20;;;;;;;6.53;5.82;;;;;;;;;;4963636;28;20434;-74
2023/09/07 13:52:45;;;;;;;6.60;5.57;;;;;;;;;;4970682;28;20181;-75
2023/09/07 13:55:11;;;;;;;5.90;5.30;;;;;;;;;;4955163;28;20169;-75
2023/09/07 13:57:36;;;;;;;6.60;6.00;;;;;;;;;;4971958;28;20216;-74
2023/09/07 14:00:02;;;;;;;7.25;5.18;;;;;;;;;;4969314;28;20208;-75
2023/09/07 14:02:27;;;;;;;18.80;7.22;;;;;;;;;;4952884;28;20172;-75
2023/09/07 14:04:53;;;;;;;6.43;5.50;;;;;;;;;;4952997;28;20184;-75
2023/09/07 14:07:18;;;;;;;7.93;5.43;;;;;;;;;;4968563;28;20404;-73
2023/09/07 14:09:43;;;;;;;5.43;5.03;;;;;;;;;;4970555;28;20173;-77
2023/09/07 14:12:09;;;;;;;6.65;5.13;;;;;;;;;;4935998;28;20189;-70
2023/09/07 14:14:34;;;;;;;6.20;5.47;;;;;;;;;;4953496;28;20239;-70
2023/09/07 14:17:00;;;;;;;6.10;5.50;;;;;;;;;;4969421;28;20288;-70
2023/09/07 14:19:27;;;;;;;7.05;5.68;;;;;;;;;;4965714;28;20423;-70
2023/09/07 14:21:52;;;;;;;6.00;5.50;;;;;;;;;;4952775;28;20169;-70
2023/09/07 14:24:17;;;;;;;5.60;5.20;;;;;;;;;;4967191;28;20205;-69
2023/09/07 14:26:43;;;;;;;6.60;6.00;;;;;;;;;;4952547;28;20418;-70
2023/09/07 14:29:08;;;;;;;5.35;4.85;;;;;;;;;;4955960;28;20493;-69
2023/09/07 14:31:34;;;;;;;6.20;5.60;;;;;;;;;;4971859;28;20173;-70
2023/09/07 14:33:59;;;;;;;6.80;5.25;;;;;;;;;;4953702;28;20188;-70
2023/09/07 14:36:24;;;;;;;6.72;5.97;;;;;;;;;;4955150;28;20197;-70
2023/09/07 14:38:50;;;;;;;5.50;5.00;;;;;;;;;;4951408;28;20181;-69